sensor_id;sensor_type;location;lat;lon;timestamp;P1;durP1;ratioP1;P2;durP2;ratioP2
76351;SDS011;65179;47.786;19.138;2023-04-06T00:00:47;11.25;;;4.93;;
76351;SDS011;65179;47.786;19.138;2023-04-06T00:03:13;10.57;;;5.20;;
76351;SDS011;65179;47.786;19.138;2023-04-06T00:05:39;8.73;;;5.28;;
76351;SDS011;65179;47.786;19.138;2023-04-06T00:08:05;11.20;;;4.97;;
76351;SDS011;65179;47.786;19.138;2023-04-06T00:10:30;9.20;;;5.03;;
76351;SDS011;65179;47.786;19.138;2023-04-06T00:12:56;10.13;;;4.30;;
76351;SDS011;65179;47.786;19.138;2023-04-06T00:15:23;8.77;;;4.50;;
76351;SDS011;65179;47.786;19.138;2023-04-06T00:17:48;11.23;;;4.93;;
76351;SDS011;65179;47.786;19.138;2023-04-06T00:20:14;8.63;;;4.75;;
76351;SDS011;65179;47.786;19.138;2023-04-06T00:22:40;10.23;;;5.00;;
76351;SDS011;65179;47.786;19.138;2023-04-06T00:25:06;9.85;;;4.90;;
76351;SDS011;65179;47.786;19.138;2023-04-06T00:27:31;10.27;;;5.07;;
76351;SDS011;65179;47.786;19.138;2023-04-06T00:29:57;13.83;;;5.57;;
76351;SDS011;65179;47.786;19.138;2023-04-06T00:32:22;12.23;;;6.07;;
76351;SDS011;65179;47.786;19.138;2023-04-06T00:34:48;12.57;;;6.93;;
76351;SDS011;65179;47.786;19.138;2023-04-06T00:37:13;13.67;;;6.63;;
76351;SDS011;65179;47.786;19.138;2023-04-06T00:39:38;16.63;;;6.97;;
76351;SDS011;65179;47.786;19.138;2023-04-06T00:42:08;17.08;;;7.93;;
76351;SDS011;65179;47.786;19.138;2023-04-06T00:44:38;18.47;;;7.97;;
76351;SDS011;65179;47.786;19.138;2023-04-06T00:47:04;15.40;;;6.57;;
76351;SDS011;65179;47.786;19.138;2023-04-06T00:49:30;21.37;;;8.53;;
76351;SDS011;65179;47.786;19.138;2023-04-06T00:51:57;16.62;;;7.75;;
76351;SDS011;65179;47.786;19.138;2023-04-06T00:54:22;14.80;;;6.67;;
76351;SDS011;65179;47.786;19.138;2023-04-06T00:56:48;10.90;;;5.55;;
76351;SDS011;65179;47.786;19.138;2023-04-06T00:59:13;12.70;;;5.97;;
76351;SDS011;65179;47.786;19.138;2023-04-06T01:01:39;11.03;;;5.93;;
76351;SDS011;65179;47.786;19.138;2023-04-06T01:04:04;13.20;;;5.55;;
76351;SDS011;65179;47.786;19.138;2023-04-06T01:06:30;13.30;;;5.83;;
76351;SDS011;65179;47.786;19.138;2023-04-06T01:08:55;12.23;;;5.80;;
76351;SDS011;65179;47.786;19.138;2023-04-06T01:11:21;11.23;;;5.87;;
76351;SDS011;65179;47.786;19.138;2023-04-06T01:13:46;12.20;;;5.70;;
76351;SDS011;65179;47.786;19.138;2023-04-06T01:16:12;12.73;;;6.40;;
76351;SDS011;65179;47.786;19.138;2023-04-06T01:18:37;15.10;;;6.63;;
76351;SDS011;65179;47.786;19.138;2023-04-06T01:21:03;14.18;;;6.47;;
76351;SDS011;65179;47.786;19.138;2023-04-06T01:23:29;12.37;;;6.63;;
76351;SDS011;65179;47.786;19.138;2023-04-06T01:25:54;13.60;;;6.28;;
76351;SDS011;65179;47.786;19.138;2023-04-06T01:28:20;10.90;;;6.00;;
76351;SDS011;65179;47.786;19.138;2023-04-06T01:30:45;10.87;;;6.10;;
76351;SDS011;65179;47.786;19.138;2023-04-06T01:33:11;12.33;;;5.50;;
76351;SDS011;65179;47.786;19.138;2023-04-06T01:35:36;9.60;;;5.40;;
76351;SDS011;65179;47.786;19.138;2023-04-06T01:38:02;13.13;;;6.27;;
76351;SDS011;65179;47.786;19.138;2023-04-06T01:40:27;14.67;;;6.77;;
76351;SDS011;65179;47.786;19.138;2023-04-06T01:42:53;14.30;;;7.13;;
76351;SDS011;65179;47.786;19.138;2023-04-06T01:45:18;14.13;;;6.65;;
76351;SDS011;65179;47.786;19.138;2023-04-06T01:47:43;15.47;;;6.23;;
76351;SDS011;65179;47.786;19.138;2023-04-06T01:50:09;13.40;;;6.47;;
76351;SDS011;65179;47.786;19.138;2023-04-06T01:52:35;12.48;;;6.50;;
76351;SDS011;65179;47.786;19.138;2023-04-06T01:55:00;14.37;;;6.80;;
76351;SDS011;65179;47.786;19.138;2023-04-06T01:57:25;11.57;;;5.90;;
76351;SDS011;65179;47.786;19.138;2023-04-06T01:59:51;12.70;;;5.87;;
76351;SDS011;65179;47.786;19.138;2023-04-06T02:02:16;12.13;;;6.43;;
76351;SDS011;65179;47.786;19.138;2023-04-06T02:04:42;13.93;;;6.57;;
76351;SDS011;65179;47.786;19.138;2023-04-06T02:07:07;11.83;;;6.47;;
76351;SDS011;65179;47.786;19.138;2023-04-06T02:09:33;13.95;;;6.50;;
76351;SDS011;65179;47.786;19.138;2023-04-06T02:11:58;15.90;;;6.37;;
76351;SDS011;65179;47.786;19.138;2023-04-06T02:14:26;13.35;;;6.72;;
76351;SDS011;65179;47.786;19.138;2023-04-06T02:16:51;10.03;;;5.70;;
76351;SDS011;65179;47.786;19.138;2023-04-06T02:19:17;15.27;;;6.30;;
76351;SDS011;65179;47.786;19.138;2023-04-06T02:21:42;13.17;;;5.67;;
76351;SDS011;65179;47.786;19.138;2023-04-06T02:24:07;10.73;;;5.10;;
76351;SDS011;65179;47.786;19.138;2023-04-06T02:26:33;11.70;;;5.60;;
76351;SDS011;65179;47.786;19.138;2023-04-06T02:28:58;9.10;;;5.00;;
76351;SDS011;65179;47.786;19.138;2023-04-06T02:31:24;11.07;;;5.37;;
76351;SDS011;65179;47.786;19.138;2023-04-06T02:33:50;10.15;;;5.28;;
76351;SDS011;65179;47.786;19.138;2023-04-06T02:36:15;8.87;;;4.83;;
76351;SDS011;65179;47.786;19.138;2023-04-06T02:38:41;9.25;;;4.60;;
76351;SDS011;65179;47.786;19.138;2023-04-06T02:41:07;11.37;;;4.97;;
76351;SDS011;65179;47.786;19.138;2023-04-06T02:43:32;9.93;;;5.43;;
76351;SDS011;65179;47.786;19.138;2023-04-06T02:45:58;9.65;;;4.93;;
76351;SDS011;65179;47.786;19.138;2023-04-06T02:48:23;13.10;;;5.10;;
76351;SDS011;65179;47.786;19.138;2023-04-06T02:50:48;10.30;;;5.10;;
76351;SDS011;65179;47.786;19.138;2023-04-06T02:53:14;12.13;;;5.70;;
76351;SDS011;65179;47.786;19.138;2023-04-06T02:55:39;11.63;;;5.47;;
76351;SDS011;65179;47.786;19.138;2023-04-06T02:58:05;11.57;;;5.03;;
76351;SDS011;65179;47.786;19.138;2023-04-06T03:00:30;10.30;;;4.60;;
76351;SDS011;65179;47.786;19.138;2023-04-06T03:02:56;8.80;;;5.07;;
76351;SDS011;65179;47.786;19.138;2023-04-06T03:05:21;12.27;;;5.55;;
76351;SDS011;65179;47.786;19.138;2023-04-06T03:07:46;10.90;;;5.30;;
76351;SDS011;65179;47.786;19.138;2023-04-06T03:10:12;11.73;;;5.20;;
76351;SDS011;65179;47.786;19.138;2023-04-06T03:12:37;13.33;;;5.33;;
76351;SDS011;65179;47.786;19.138;2023-04-06T03:15:03;13.13;;;6.50;;
76351;SDS011;65179;47.786;19.138;2023-04-06T03:17:29;11.50;;;6.13;;
76351;SDS011;65179;47.786;19.138;2023-04-06T03:19:55;13.15;;;5.93;;
76351;SDS011;65179;47.786;19.138;2023-04-06T03:22:20;11.37;;;5.80;;
76351;SDS011;65179;47.786;19.138;2023-04-06T03:24:45;10.37;;;6.03;;
76351;SDS011;65179;47.786;19.138;2023-04-06T03:27:11;11.83;;;5.67;;
76351;SDS011;65179;47.786;19.138;2023-04-06T03:29:36;13.87;;;5.93;;
76351;SDS011;65179;47.786;19.138;2023-04-06T03:32:02;10.10;;;5.82;;
76351;SDS011;65179;47.786;19.138;2023-04-06T03:34:27;11.77;;;5.63;;
76351;SDS011;65179;47.786;19.138;2023-04-06T03:36:53;11.70;;;5.90;;
76351;SDS011;65179;47.786;19.138;2023-04-06T03:39:18;13.45;;;6.12;;
76351;SDS011;65179;47.786;19.138;2023-04-06T03:41:44;14.00;;;6.10;;
76351;SDS011;65179;47.786;19.138;2023-04-06T03:44:10;11.77;;;6.40;;
76351;SDS011;65179;47.786;19.138;2023-04-06T03:46:35;13.75;;;5.22;;
76351;SDS011;65179;47.786;19.138;2023-04-06T03:49:00;14.30;;;5.63;;
76351;SDS011;65179;47.786;19.138;2023-04-06T03:51:26;12.80;;;6.07;;
76351;SDS011;65179;47.786;19.138;2023-04-06T03:53:52;12.00;;;6.07;;
76351;SDS011;65179;47.786;19.138;2023-04-06T03:56:18;10.10;;;5.63;;
76351;SDS011;65179;47.786;19.138;2023-04-06T03:58:43;11.13;;;6.13;;
76351;SDS011;65179;47.786;19.138;2023-04-06T04:01:10;13.77;;;6.40;;
76351;SDS011;65179;47.786;19.138;2023-04-06T04:03:36;15.63;;;6.20;;
76351;SDS011;65179;47.786;19.138;2023-04-06T04:06:01;14.63;;;6.10;;
76351;SDS011;65179;47.786;19.138;2023-04-06T04:08:27;9.77;;;6.20;;
76351;SDS011;65179;47.786;19.138;2023-04-06T04:10:52;13.52;;;6.65;;
76351;SDS011;65179;47.786;19.138;2023-04-06T04:13:17;13.77;;;5.70;;
76351;SDS011;65179;47.786;19.138;2023-04-06T04:15:43;15.57;;;6.50;;
76351;SDS011;65179;47.786;19.138;2023-04-06T04:18:09;14.75;;;6.43;;
76351;SDS011;65179;47.786;19.138;2023-04-06T04:20:34;14.77;;;6.87;;
76351;SDS011;65179;47.786;19.138;2023-04-06T04:23:00;16.80;;;7.13;;
76351;SDS011;65179;47.786;19.138;2023-04-06T04:25:25;18.12;;;6.53;;
76351;SDS011;65179;47.786;19.138;2023-04-06T04:27:51;12.70;;;6.40;;
76351;SDS011;65179;47.786;19.138;2023-04-06T04:30:16;17.10;;;6.37;;
76351;SDS011;65179;47.786;19.138;2023-04-06T04:32:42;13.83;;;6.63;;
76351;SDS011;65179;47.786;19.138;2023-04-06T04:35:07;16.20;;;6.55;;
76351;SDS011;65179;47.786;19.138;2023-04-06T04:37:33;14.60;;;6.77;;
76351;SDS011;65179;47.786;19.138;2023-04-06T04:40:00;12.75;;;6.35;;
76351;SDS011;65179;47.786;19.138;2023-04-06T04:42:25;16.17;;;6.68;;
76351;SDS011;65179;47.786;19.138;2023-04-06T04:44:51;11.23;;;5.72;;
76351;SDS011;65179;47.786;19.138;2023-04-06T04:47:16;12.83;;;6.53;;
76351;SDS011;65179;47.786;19.138;2023-04-06T04:49:42;15.80;;;6.13;;
76351;SDS011;65179;47.786;19.138;2023-04-06T04:52:07;19.65;;;6.47;;
76351;SDS011;65179;47.786;19.138;2023-04-06T04:54:33;16.02;;;6.90;;
76351;SDS011;65179;47.786;19.138;2023-04-06T04:56:58;15.07;;;7.43;;
76351;SDS011;65179;47.786;19.138;2023-04-06T04:59:24;16.60;;;6.83;;
76351;SDS011;65179;47.786;19.138;2023-04-06T05:01:49;11.27;;;6.10;;
76351;SDS011;65179;47.786;19.138;2023-04-06T05:04:15;11.90;;;6.20;;
76351;SDS011;65179;47.786;19.138;2023-04-06T05:06:40;11.93;;;6.13;;
76351;SDS011;65179;47.786;19.138;2023-04-06T05:09:05;12.23;;;5.97;;
76351;SDS011;65179;47.786;19.138;2023-04-06T05:11:31;14.02;;;7.15;;
76351;SDS011;65179;47.786;19.138;2023-04-06T05:13:56;12.50;;;5.90;;
76351;SDS011;65179;47.786;19.138;2023-04-06T05:16:22;14.73;;;6.27;;
76351;SDS011;65179;47.786;19.138;2023-04-06T05:18:47;14.60;;;6.57;;
76351;SDS011;65179;47.786;19.138;2023-04-06T05:21:13;15.13;;;7.40;;
76351;SDS011;65179;47.786;19.138;2023-04-06T05:23:39;12.93;;;6.93;;
76351;SDS011;65179;47.786;19.138;2023-04-06T05:26:04;12.68;;;6.50;;
76351;SDS011;65179;47.786;19.138;2023-04-06T05:28:30;17.70;;;6.60;;
76351;SDS011;65179;47.786;19.138;2023-04-06T05:30:55;14.70;;;6.00;;
76351;SDS011;65179;47.786;19.138;2023-04-06T05:33:22;18.00;;;7.22;;
76351;SDS011;65179;47.786;19.138;2023-04-06T05:35:48;14.85;;;6.20;;
76351;SDS011;65179;47.786;19.138;2023-04-06T05:38:13;14.40;;;6.87;;
76351;SDS011;65179;47.786;19.138;2023-04-06T05:40:38;15.60;;;6.93;;
76351;SDS011;65179;47.786;19.138;2023-04-06T05:43:06;13.13;;;7.05;;
76351;SDS011;65179;47.786;19.138;2023-04-06T05:45:32;13.68;;;7.00;;
76351;SDS011;65179;47.786;19.138;2023-04-06T05:47:57;13.53;;;6.87;;
76351;SDS011;65179;47.786;19.138;2023-04-06T05:50:22;13.70;;;6.60;;
76351;SDS011;65179;47.786;19.138;2023-04-06T05:52:48;11.93;;;6.87;;
76351;SDS011;65179;47.786;19.138;2023-04-06T05:55:13;13.57;;;7.55;;
76351;SDS011;65179;47.786;19.138;2023-04-06T05:57:39;14.17;;;7.67;;
76351;SDS011;65179;47.786;19.138;2023-04-06T06:00:05;14.80;;;7.40;;
76351;SDS011;65179;47.786;19.138;2023-04-06T06:02:33;14.55;;;6.97;;
76351;SDS011;65179;47.786;19.138;2023-04-06T06:04:59;14.52;;;7.03;;
76351;SDS011;65179;47.786;19.138;2023-04-06T06:07:25;14.87;;;6.37;;
76351;SDS011;65179;47.786;19.138;2023-04-06T06:09:50;13.67;;;7.33;;
76351;SDS011;65179;47.786;19.138;2023-04-06T06:12:15;19.77;;;7.23;;
76351;SDS011;65179;47.786;19.138;2023-04-06T06:14:41;13.27;;;6.82;;
76351;SDS011;65179;47.786;19.138;2023-04-06T06:17:06;12.10;;;6.63;;
76351;SDS011;65179;47.786;19.138;2023-04-06T06:19:32;17.13;;;7.80;;
76351;SDS011;65179;47.786;19.138;2023-04-06T06:21:57;12.07;;;6.23;;
76351;SDS011;65179;47.786;19.138;2023-04-06T06:24:23;17.48;;;7.78;;
76351;SDS011;65179;47.786;19.138;2023-04-06T06:26:49;18.97;;;7.93;;
76351;SDS011;65179;47.786;19.138;2023-04-06T06:29:14;14.80;;;7.05;;
76351;SDS011;65179;47.786;19.138;2023-04-06T06:31:40;12.13;;;6.60;;
76351;SDS011;65179;47.786;19.138;2023-04-06T06:34:05;14.80;;;7.13;;
76351;SDS011;65179;47.786;19.138;2023-04-06T06:36:31;13.18;;;6.85;;
76351;SDS011;65179;47.786;19.138;2023-04-06T06:38:58;14.93;;;6.68;;
76351;SDS011;65179;47.786;19.138;2023-04-06T06:41:23;15.30;;;7.57;;
76351;SDS011;65179;47.786;19.138;2023-04-06T06:43:51;13.62;;;6.93;;
76351;SDS011;65179;47.786;19.138;2023-04-06T06:46:17;15.05;;;7.15;;
76351;SDS011;65179;47.786;19.138;2023-04-06T06:48:42;14.03;;;7.30;;
76351;SDS011;65179;47.786;19.138;2023-04-06T06:51:08;14.25;;;7.70;;
76351;SDS011;65179;47.786;19.138;2023-04-06T06:53:34;11.93;;;6.20;;
76351;SDS011;65179;47.786;19.138;2023-04-06T06:56:00;13.02;;;6.35;;
76351;SDS011;65179;47.786;19.138;2023-04-06T06:58:25;15.37;;;6.80;;
76351;SDS011;65179;47.786;19.138;2023-04-06T07:00:55;13.15;;;6.55;;
76351;SDS011;65179;47.786;19.138;2023-04-06T07:03:22;15.77;;;7.37;;
76351;SDS011;65179;47.786;19.138;2023-04-06T07:05:48;14.43;;;6.72;;
76351;SDS011;65179;47.786;19.138;2023-04-06T07:08:17;14.13;;;6.77;;
76351;SDS011;65179;47.786;19.138;2023-04-06T07:10:43;13.85;;;6.18;;
76351;SDS011;65179;47.786;19.138;2023-04-06T07:13:08;11.33;;;6.40;;
76351;SDS011;65179;47.786;19.138;2023-04-06T07:15:34;14.93;;;7.43;;
76351;SDS011;65179;47.786;19.138;2023-04-06T07:17:59;15.52;;;6.90;;
76351;SDS011;65179;47.786;19.138;2023-04-06T07:20:25;14.17;;;6.97;;
76351;SDS011;65179;47.786;19.138;2023-04-06T07:22:52;15.45;;;6.72;;
76351;SDS011;65179;47.786;19.138;2023-04-06T07:25:18;11.93;;;6.13;;
76351;SDS011;65179;47.786;19.138;2023-04-06T07:27:43;11.90;;;6.67;;
76351;SDS011;65179;47.786;19.138;2023-04-06T07:30:09;13.38;;;6.90;;
76351;SDS011;65179;47.786;19.138;2023-04-06T07:32:35;12.43;;;6.80;;
76351;SDS011;65179;47.786;19.138;2023-04-06T07:35:00;13.52;;;6.37;;
76351;SDS011;65179;47.786;19.138;2023-04-06T07:37:26;13.77;;;6.35;;
76351;SDS011;65179;47.786;19.138;2023-04-06T07:39:52;15.30;;;6.57;;
76351;SDS011;65179;47.786;19.138;2023-04-06T07:42:17;12.20;;;6.33;;
76351;SDS011;65179;47.786;19.138;2023-04-06T07:44:42;11.70;;;6.03;;
76351;SDS011;65179;47.786;19.138;2023-04-06T07:47:08;12.73;;;6.10;;
76351;SDS011;65179;47.786;19.138;2023-04-06T07:49:33;15.77;;;6.40;;
76351;SDS011;65179;47.786;19.138;2023-04-06T07:51:58;13.87;;;6.60;;
76351;SDS011;65179;47.786;19.138;2023-04-06T07:54:24;10.67;;;5.63;;
76351;SDS011;65179;47.786;19.138;2023-04-06T07:56:50;12.35;;;6.20;;
76351;SDS011;65179;47.786;19.138;2023-04-06T07:59:15;13.17;;;5.83;;
76351;SDS011;65179;47.786;19.138;2023-04-06T08:01:40;12.50;;;6.40;;
76351;SDS011;65179;47.786;19.138;2023-04-06T08:04:06;15.27;;;6.33;;
76351;SDS011;65179;47.786;19.138;2023-04-06T08:06:31;10.65;;;5.50;;
76351;SDS011;65179;47.786;19.138;2023-04-06T08:08:57;8.98;;;4.20;;
76351;SDS011;65179;47.786;19.138;2023-04-06T08:11:22;12.03;;;6.47;;
76351;SDS011;65179;47.786;19.138;2023-04-06T08:13:48;11.80;;;5.43;;
76351;SDS011;65179;47.786;19.138;2023-04-06T08:16:13;10.80;;;5.13;;
76351;SDS011;65179;47.786;19.138;2023-04-06T08:18:38;11.38;;;5.80;;
76351;SDS011;65179;47.786;19.138;2023-04-06T08:21:04;13.17;;;5.53;;
76351;SDS011;65179;47.786;19.138;2023-04-06T08:23:29;10.87;;;5.73;;
76351;SDS011;65179;47.786;19.138;2023-04-06T08:25:55;11.33;;;5.77;;
76351;SDS011;65179;47.786;19.138;2023-04-06T08:28:20;10.02;;;5.28;;
76351;SDS011;65179;47.786;19.138;2023-04-06T08:30:46;10.20;;;5.30;;
76351;SDS011;65179;47.786;19.138;2023-04-06T08:33:11;9.88;;;4.37;;
76351;SDS011;65179;47.786;19.138;2023-04-06T08:35:37;11.60;;;5.27;;
76351;SDS011;65179;47.786;19.138;2023-04-06T08:38:02;9.70;;;4.17;;
76351;SDS011;65179;47.786;19.138;2023-04-06T08:40:28;9.27;;;4.40;;
76351;SDS011;65179;47.786;19.138;2023-04-06T08:42:56;9.18;;;4.40;;
76351;SDS011;65179;47.786;19.138;2023-04-06T08:45:27;10.23;;;4.37;;
76351;SDS011;65179;47.786;19.138;2023-04-06T08:47:52;11.23;;;5.07;;
76351;SDS011;65179;47.786;19.138;2023-04-06T08:50:19;8.90;;;4.87;;
76351;SDS011;65179;47.786;19.138;2023-04-06T08:52:49;8.95;;;4.20;;
76351;SDS011;65179;47.786;19.138;2023-04-06T08:55:15;9.98;;;4.22;;
76351;SDS011;65179;47.786;19.138;2023-04-06T08:57:41;8.70;;;4.25;;
76351;SDS011;65179;47.786;19.138;2023-04-06T09:00:07;8.10;;;4.07;;
76351;SDS011;65179;47.786;19.138;2023-04-06T09:02:36;8.00;;;4.35;;
76351;SDS011;65179;47.786;19.138;2023-04-06T09:05:04;8.68;;;4.72;;
76351;SDS011;65179;47.786;19.138;2023-04-06T09:07:29;10.27;;;4.28;;
76351;SDS011;65179;47.786;19.138;2023-04-06T09:09:55;11.35;;;4.78;;
76351;SDS011;65179;47.786;19.138;2023-04-06T09:12:24;11.02;;;3.90;;
76351;SDS011;65179;47.786;19.138;2023-04-06T09:14:53;7.65;;;4.18;;
76351;SDS011;65179;47.786;19.138;2023-04-06T09:17:21;9.53;;;4.27;;
76351;SDS011;65179;47.786;19.138;2023-04-06T09:19:54;10.05;;;4.37;;
76351;SDS011;65179;47.786;19.138;2023-04-06T09:22:20;8.48;;;4.32;;
76351;SDS011;65179;47.786;19.138;2023-04-06T09:24:47;9.37;;;4.60;;
76351;SDS011;65179;47.786;19.138;2023-04-06T09:27:14;11.93;;;4.72;;
76351;SDS011;65179;47.786;19.138;2023-04-06T09:29:40;10.32;;;4.28;;
76351;SDS011;65179;47.786;19.138;2023-04-06T09:32:10;10.50;;;4.53;;
76351;SDS011;65179;47.786;19.138;2023-04-06T09:34:37;8.50;;;4.22;;
76351;SDS011;65179;47.786;19.138;2023-04-06T09:39:42;9.50;;;4.57;;
76351;SDS011;65179;47.786;19.138;2023-04-06T09:42:08;8.70;;;4.45;;
76351;SDS011;65179;47.786;19.138;2023-04-06T09:44:34;11.23;;;4.00;;
76351;SDS011;65179;47.786;19.138;2023-04-06T09:47:00;10.45;;;3.90;;
76351;SDS011;65179;47.786;19.138;2023-04-06T09:49:28;8.68;;;4.57;;
76351;SDS011;65179;47.786;19.138;2023-04-06T09:51:57;8.80;;;4.13;;
76351;SDS011;65179;47.786;19.138;2023-04-06T09:54:33;8.80;;;4.75;;
76351;SDS011;65179;47.786;19.138;2023-04-06T10:02:28;8.40;;;3.62;;
76351;SDS011;65179;47.786;19.138;2023-04-06T10:05:05;9.23;;;4.10;;
76351;SDS011;65179;47.786;19.138;2023-04-06T10:07:54;10.10;;;3.97;;
76351;SDS011;65179;47.786;19.138;2023-04-06T10:10:22;9.82;;;4.30;;
76351;SDS011;65179;47.786;19.138;2023-04-06T10:12:48;12.63;;;4.13;;
76351;SDS011;65179;47.786;19.138;2023-04-06T10:15:15;7.47;;;4.18;;
76351;SDS011;65179;47.786;19.138;2023-04-06T10:17:41;9.55;;;4.65;;
76351;SDS011;65179;47.786;19.138;2023-04-06T10:20:15;6.00;;;3.33;;
76351;SDS011;65179;47.786;19.138;2023-04-06T10:22:51;7.78;;;3.90;;
76351;SDS011;65179;47.786;19.138;2023-04-06T10:25:30;9.40;;;4.37;;
76351;SDS011;65179;47.786;19.138;2023-04-06T10:28:15;9.50;;;4.15;;
76351;SDS011;65179;47.786;19.138;2023-04-06T10:30:44;8.97;;;3.83;;
76351;SDS011;65179;47.786;19.138;2023-04-06T10:33:14;9.60;;;4.07;;
76351;SDS011;65179;47.786;19.138;2023-04-06T10:35:40;9.27;;;4.18;;
76351;SDS011;65179;47.786;19.138;2023-04-06T10:38:09;7.35;;;4.15;;
76351;SDS011;65179;47.786;19.138;2023-04-06T10:40:38;8.17;;;4.20;;
76351;SDS011;65179;47.786;19.138;2023-04-06T10:43:11;9.70;;;4.40;;
76351;SDS011;65179;47.786;19.138;2023-04-06T10:45:38;8.68;;;4.47;;
76351;SDS011;65179;47.786;19.138;2023-04-06T10:48:14;9.15;;;3.78;;
76351;SDS011;65179;47.786;19.138;2023-04-06T10:50:47;10.30;;;4.03;;
76351;SDS011;65179;47.786;19.138;2023-04-06T10:53:21;9.82;;;4.03;;
76351;SDS011;65179;47.786;19.138;2023-04-06T10:55:49;7.55;;;4.05;;
76351;SDS011;65179;47.786;19.138;2023-04-06T10:58:15;6.70;;;3.92;;
76351;SDS011;65179;47.786;19.138;2023-04-06T11:00:45;7.60;;;3.93;;
76351;SDS011;65179;47.786;19.138;2023-04-06T11:03:14;6.15;;;3.67;;
76351;SDS011;65179;47.786;19.138;2023-04-06T11:05:49;7.82;;;3.90;;
76351;SDS011;65179;47.786;19.138;2023-04-06T11:08:25;10.35;;;3.97;;
76351;SDS011;65179;47.786;19.138;2023-04-06T11:11:05;9.50;;;4.10;;
76351;SDS011;65179;47.786;19.138;2023-04-06T11:13:40;7.68;;;3.78;;
76351;SDS011;65179;47.786;19.138;2023-04-06T11:16:05;8.63;;;4.65;;
76351;SDS011;65179;47.786;19.138;2023-04-06T11:18:31;8.07;;;3.77;;
76351;SDS011;65179;47.786;19.138;2023-04-06T11:20:56;8.85;;;3.87;;
76351;SDS011;65179;47.786;19.138;2023-04-06T11:23:23;9.60;;;4.37;;
76351;SDS011;65179;47.786;19.138;2023-04-06T11:25:55;11.85;;;4.30;;
76351;SDS011;65179;47.786;19.138;2023-04-06T11:28:21;7.82;;;4.40;;
76351;SDS011;65179;47.786;19.138;2023-04-06T11:30:46;8.90;;;4.33;;
76351;SDS011;65179;47.786;19.138;2023-04-06T11:33:19;8.80;;;4.33;;
76351;SDS011;65179;47.786;19.138;2023-04-06T11:35:45;7.30;;;3.95;;
76351;SDS011;65179;47.786;19.138;2023-04-06T11:38:11;7.35;;;3.80;;
76351;SDS011;65179;47.786;19.138;2023-04-06T11:40:36;7.57;;;3.87;;
76351;SDS011;65179;47.786;19.138;2023-04-06T11:43:02;7.90;;;3.73;;
76351;SDS011;65179;47.786;19.138;2023-04-06T11:45:29;9.20;;;4.10;;
76351;SDS011;65179;47.786;19.138;2023-04-06T11:48:04;7.95;;;3.95;;
76351;SDS011;65179;47.786;19.138;2023-04-06T11:50:32;7.85;;;3.55;;
76351;SDS011;65179;47.786;19.138;2023-04-06T11:53:01;7.53;;;3.80;;
76351;SDS011;65179;47.786;19.138;2023-04-06T11:55:28;7.55;;;3.67;;
76351;SDS011;65179;47.786;19.138;2023-04-06T11:57:56;8.40;;;3.90;;
76351;SDS011;65179;47.786;19.138;2023-04-06T12:00:22;7.53;;;3.67;;
76351;SDS011;65179;47.786;19.138;2023-04-06T12:02:48;7.75;;;3.62;;
76351;SDS011;65179;47.786;19.138;2023-04-06T12:05:14;7.72;;;3.62;;
76351;SDS011;65179;47.786;19.138;2023-04-06T12:07:42;7.68;;;4.00;;
76351;SDS011;65179;47.786;19.138;2023-04-06T12:10:08;8.25;;;3.75;;
76351;SDS011;65179;47.786;19.138;2023-04-06T12:12:33;7.68;;;3.62;;
76351;SDS011;65179;47.786;19.138;2023-04-06T12:14:59;6.47;;;3.60;;
76351;SDS011;65179;47.786;19.138;2023-04-06T12:17:25;7.87;;;3.80;;
76351;SDS011;65179;47.786;19.138;2023-04-06T12:19:50;7.22;;;3.70;;
76351;SDS011;65179;47.786;19.138;2023-04-06T12:22:17;8.93;;;3.27;;
76351;SDS011;65179;47.786;19.138;2023-04-06T12:24:43;7.68;;;3.40;;
76351;SDS011;65179;47.786;19.138;2023-04-06T12:27:08;8.47;;;3.47;;
76351;SDS011;65179;47.786;19.138;2023-04-06T12:29:35;5.50;;;3.25;;
76351;SDS011;65179;47.786;19.138;2023-04-06T12:32:01;8.93;;;3.20;;
76351;SDS011;65179;47.786;19.138;2023-04-06T12:34:26;7.87;;;3.50;;
76351;SDS011;65179;47.786;19.138;2023-04-06T12:36:52;6.62;;;3.42;;
76351;SDS011;65179;47.786;19.138;2023-04-06T12:39:18;7.70;;;3.70;;
76351;SDS011;65179;47.786;19.138;2023-04-06T12:41:44;9.00;;;4.10;;
76351;SDS011;65179;47.786;19.138;2023-04-06T12:44:09;9.97;;;3.73;;
76351;SDS011;65179;47.786;19.138;2023-04-06T12:46:34;9.40;;;3.90;;
76351;SDS011;65179;47.786;19.138;2023-04-06T12:49:01;7.22;;;3.40;;
76351;SDS011;65179;47.786;19.138;2023-04-06T12:51:28;6.65;;;3.60;;
76351;SDS011;65179;47.786;19.138;2023-04-06T12:53:53;7.47;;;3.67;;
76351;SDS011;65179;47.786;19.138;2023-04-06T12:56:19;7.40;;;3.75;;
76351;SDS011;65179;47.786;19.138;2023-04-06T12:58:46;7.07;;;3.90;;
76351;SDS011;65179;47.786;19.138;2023-04-06T13:01:11;5.97;;;3.22;;
76351;SDS011;65179;47.786;19.138;2023-04-06T13:03:40;6.78;;;3.22;;
76351;SDS011;65179;47.786;19.138;2023-04-06T13:06:06;6.80;;;3.90;;
76351;SDS011;65179;47.786;19.138;2023-04-06T13:08:36;8.65;;;4.12;;
76351;SDS011;65179;47.786;19.138;2023-04-06T13:11:03;6.12;;;3.10;;
76351;SDS011;65179;47.786;19.138;2023-04-06T13:13:29;6.60;;;3.25;;
76351;SDS011;65179;47.786;19.138;2023-04-06T13:15:58;6.40;;;3.57;;
76351;SDS011;65179;47.786;19.138;2023-04-06T13:18:26;7.85;;;3.28;;
76351;SDS011;65179;47.786;19.138;2023-04-06T13:20:51;7.80;;;3.03;;
76351;SDS011;65179;47.786;19.138;2023-04-06T13:23:17;6.50;;;2.85;;
76351;SDS011;65179;47.786;19.138;2023-04-06T13:25:42;6.33;;;3.10;;
76351;SDS011;65179;47.786;19.138;2023-04-06T13:28:08;6.33;;;2.70;;
76351;SDS011;65179;47.786;19.138;2023-04-06T13:30:34;7.90;;;2.87;;
76351;SDS011;65179;47.786;19.138;2023-04-06T13:33:00;8.40;;;3.00;;
76351;SDS011;65179;47.786;19.138;2023-04-06T13:35:26;7.53;;;2.85;;
76351;SDS011;65179;47.786;19.138;2023-04-06T13:37:51;7.50;;;2.87;;
76351;SDS011;65179;47.786;19.138;2023-04-06T13:40:17;6.70;;;3.03;;
76351;SDS011;65179;47.786;19.138;2023-04-06T13:42:42;7.93;;;3.30;;
76351;SDS011;65179;47.786;19.138;2023-04-06T13:45:10;7.00;;;3.22;;
76351;SDS011;65179;47.786;19.138;2023-04-06T13:47:36;6.60;;;3.47;;
76351;SDS011;65179;47.786;19.138;2023-04-06T13:50:02;8.77;;;3.53;;
76351;SDS011;65179;47.786;19.138;2023-04-06T13:52:28;9.13;;;3.90;;
76351;SDS011;65179;47.786;19.138;2023-04-06T13:54:54;7.25;;;3.00;;
76351;SDS011;65179;47.786;19.138;2023-04-06T13:57:19;5.53;;;2.70;;
76351;SDS011;65179;47.786;19.138;2023-04-06T13:59:45;7.23;;;3.00;;
76351;SDS011;65179;47.786;19.138;2023-04-06T14:02:10;6.63;;;2.90;;
76351;SDS011;65179;47.786;19.138;2023-04-06T14:04:36;7.87;;;3.00;;
76351;SDS011;65179;47.786;19.138;2023-04-06T14:07:02;8.38;;;3.22;;
76351;SDS011;65179;47.786;19.138;2023-04-06T14:09:28;6.40;;;2.92;;
76351;SDS011;65179;47.786;19.138;2023-04-06T14:11:54;7.43;;;3.25;;
76351;SDS011;65179;47.786;19.138;2023-04-06T14:14:21;5.55;;;2.85;;
76351;SDS011;65179;47.786;19.138;2023-04-06T14:16:47;5.90;;;3.03;;
76351;SDS011;65179;47.786;19.138;2023-04-06T14:19:14;6.75;;;3.17;;
76351;SDS011;65179;47.786;19.138;2023-04-06T14:21:42;7.62;;;3.15;;
76351;SDS011;65179;47.786;19.138;2023-04-06T14:24:09;6.68;;;3.40;;
76351;SDS011;65179;47.786;19.138;2023-04-06T14:26:35;5.70;;;3.37;;
76351;SDS011;65179;47.786;19.138;2023-04-06T14:29:02;9.93;;;3.60;;